createdAt,value
2022-11-25T00:01:34.107Z,10.15
2022-11-25T00:04:01.750Z,10.14
2022-11-25T00:06:34.933Z,10.20
2022-11-25T00:09:09.699Z,10.22
2022-11-25T00:11:39.312Z,10.16
2022-11-25T00:14:08.265Z,10.07
2022-11-25T00:16:35.358Z,9.94
2022-11-25T00:19:02.359Z,9.88
2022-11-25T00:21:33.311Z,9.99
2022-11-25T00:24:06.600Z,10.15
2022-11-25T00:26:35.664Z,9.93
2022-11-25T00:29:06.873Z,9.97
2022-11-25T00:31:38.290Z,9.89
2022-11-25T00:34:05.858Z,9.89
2022-11-25T00:36:35.759Z,9.86
2022-11-25T00:39:08.261Z,9.93
2022-11-25T00:41:53.908Z,9.88
2022-11-25T00:44:37.823Z,9.75
2022-11-25T00:47:18.784Z,9.78
2022-11-25T00:49:51.864Z,9.79
2022-11-25T00:52:22.312Z,9.79
2022-11-25T00:54:50.424Z,9.69
2022-11-25T00:57:21.045Z,9.77
2022-11-25T00:59:48.876Z,9.70
2022-11-25T01:02:18.326Z,9.77
2022-11-25T01:04:46.183Z,9.73
2022-11-25T01:07:16.346Z,9.73
2022-11-25T01:09:43.374Z,9.64
2022-11-25T01:12:10.543Z,9.61
2022-11-25T01:14:38.349Z,9.58
2022-11-25T01:17:05.632Z,9.60
2022-11-25T01:19:33.171Z,9.65
2022-11-25T01:22:00.754Z,9.65
2022-11-25T01:24:28.077Z,9.66
2022-11-25T01:26:55.984Z,9.63
2022-11-25T01:29:24.240Z,9.63
2022-11-25T01:31:56.316Z,9.69
2022-11-25T01:34:26.608Z,9.61
2022-11-25T01:36:57.576Z,9.63
2022-11-25T01:39:32.080Z,9.58
2022-11-25T01:42:00.961Z,9.55
2022-11-25T01:44:31.246Z,9.66
2022-11-25T01:46:58.962Z,9.67
2022-11-25T01:49:37.315Z,9.73
2022-11-25T01:52:15.529Z,9.65
2022-11-25T01:54:55.226Z,9.65
2022-11-25T01:57:47.025Z,9.70
2022-11-25T02:00:18.325Z,9.41
2022-11-25T02:02:46.893Z,9.73
2022-11-25T02:05:20.050Z,9.81
2022-11-25T02:07:51.382Z,9.89
2022-11-25T02:10:25.820Z,10.02
2022-11-25T02:12:53.429Z,9.64
2022-11-25T02:15:21.970Z,10.01
2022-11-25T02:17:49.719Z,9.86
2022-11-25T02:20:20.966Z,9.76
2022-11-25T02:23:15.439Z,9.80
2022-11-25T02:25:46.853Z,9.89
2022-11-25T02:28:27.651Z,9.74
2022-11-25T02:30:55.199Z,9.58
2022-11-25T02:33:24.128Z,9.57
2022-11-25T02:35:57.288Z,9.67
2022-11-25T02:38:39.785Z,9.64
2022-11-25T02:41:17.012Z,9.58
2022-11-25T02:43:47.441Z,9.50
2022-11-25T02:46:22.273Z,9.48
2022-11-25T02:49:09.303Z,9.51
2022-11-25T02:51:37.475Z,9.34
2022-11-25T02:54:05.428Z,9.56
2022-11-25T02:56:34.746Z,9.55
2022-11-25T02:59:02.152Z,9.32
2022-11-25T03:01:31.363Z,9.31
2022-11-25T03:03:59.393Z,9.60
2022-11-25T03:06:29.665Z,9.62
2022-11-25T03:08:57.421Z,9.50
2022-11-25T03:11:43.528Z,9.39
2022-11-25T03:14:11.102Z,9.28
2022-11-25T03:16:38.589Z,9.28
2022-11-25T03:19:06.045Z,9.16
2022-11-25T03:21:33.415Z,9.14
2022-11-25T03:24:01.098Z,9.20
2022-11-25T03:26:28.411Z,9.12
2022-11-25T03:28:55.747Z,9.13
2022-11-25T03:31:26.225Z,9.04
2022-11-25T03:33:55.299Z,9.11
2022-11-25T03:36:22.677Z,9.14
2022-11-25T03:38:50.057Z,9.08
2022-11-25T03:41:17.829Z,8.98
2022-11-25T03:43:46.030Z,9.01
2022-11-25T03:46:16.079Z,9.09
2022-11-25T03:48:43.645Z,9.05
2022-11-25T03:51:11.051Z,9.02
2022-11-25T03:53:38.520Z,8.88
2022-11-25T03:56:08.126Z,9.00
2022-11-25T03:58:35.888Z,9.02
2022-11-25T04:01:05.415Z,9.05
2022-11-25T04:03:32.664Z,8.96
2022-11-25T04:06:00.283Z,8.91
2022-11-25T04:08:28.835Z,8.88
2022-11-25T04:10:56.340Z,8.86
2022-11-25T04:13:29.607Z,8.92
2022-11-25T04:15:57.490Z,8.89
2022-11-25T04:18:26.168Z,8.92
2022-11-25T04:20:56.471Z,8.94
2022-11-25T04:23:23.830Z,8.91
2022-11-25T04:26:01.898Z,8.90
2022-11-25T04:28:35.057Z,8.93
2022-11-25T04:31:07.547Z,8.93
2022-11-25T04:33:37.529Z,8.86
2022-11-25T04:36:04.743Z,8.77
2022-11-25T04:38:32.183Z,8.76
2022-11-25T04:40:59.762Z,8.84
2022-11-25T04:43:28.592Z,8.82
2022-11-25T04:46:13.895Z,8.79
2022-11-25T04:48:43.113Z,8.76
2022-11-25T04:51:10.633Z,8.76
2022-11-25T04:53:38.294Z,8.80
2022-11-25T04:56:07.153Z,8.81
2022-11-25T04:59:00.679Z,8.78
2022-11-25T05:01:28.361Z,8.66
2022-11-25T05:04:03.874Z,8.67
2022-11-25T05:06:31.217Z,8.68
2022-11-25T05:08:58.578Z,8.65
2022-11-25T05:11:27.076Z,8.63
2022-11-25T05:13:54.573Z,8.63
2022-11-25T05:16:22.140Z,8.60
2022-11-25T05:18:49.515Z,8.63
2022-11-25T05:21:17.775Z,8.61
2022-11-25T05:23:52.959Z,8.56
2022-11-25T05:27:12.571Z,8.73
2022-11-25T05:29:40.146Z,8.59
2022-11-25T05:32:09.379Z,8.49
2022-11-25T05:34:37.830Z,8.52
2022-11-25T05:37:05.907Z,8.53
2022-11-25T05:39:34.965Z,8.52
2022-11-25T05:42:39.541Z,8.51
2022-11-25T05:45:08.986Z,8.46
2022-11-25T05:47:36.815Z,8.46
2022-11-25T05:50:06.091Z,8.44
2022-11-25T05:52:33.530Z,8.41
2022-11-25T05:55:02.171Z,8.35
2022-11-25T05:57:29.504Z,8.36
2022-11-25T06:00:01.978Z,8.49
2022-11-25T06:02:51.464Z,8.60
2022-11-25T06:05:19.908Z,8.52
2022-11-25T06:07:47.409Z,8.52
2022-11-25T06:10:18.192Z,8.53
2022-11-25T06:12:45.714Z,8.35
2022-11-25T06:15:14.919Z,8.29
2022-11-25T06:17:42.683Z,8.40
2022-11-25T06:20:18.822Z,8.42
2022-11-25T06:22:46.638Z,8.39
2022-11-25T06:25:15.226Z,8.55
2022-11-25T06:28:11.127Z,8.38
2022-11-25T06:30:35.389Z,8.53
2022-11-25T06:33:22.163Z,8.30
2022-11-25T06:35:50.251Z,8.24
2022-11-25T06:38:17.608Z,8.32
2022-11-25T06:40:44.973Z,8.52
2022-11-25T06:43:12.457Z,8.06
2022-11-25T06:45:39.735Z,8.32
2022-11-25T06:48:07.161Z,8.34
2022-11-25T06:51:31.149Z,8.54
2022-11-25T06:57:28.043Z,8.38
2022-11-25T06:59:56.215Z,8.44
2022-11-25T07:03:15.682Z,8.44
2022-11-25T07:05:52.723Z,8.26
2022-11-25T07:08:41.249Z,8.29
2022-11-25T07:12:21.779Z,8.36
2022-11-25T07:15:10.552Z,8.24
2022-11-25T07:17:57.911Z,8.35
2022-11-25T07:32:11.273Z,8.34
2022-11-25T07:53:27.747Z,8.60
2022-11-25T07:56:22.958Z,8.91
2022-11-25T07:59:15.858Z,9.01
2022-11-25T08:02:03.498Z,8.94
2022-11-25T08:04:51.017Z,8.80
2022-11-25T08:07:38.528Z,8.84
2022-11-25T08:10:25.989Z,9.01
2022-11-25T08:13:12.337Z,9.14
2022-11-25T08:16:00.511Z,9.22
2022-11-25T08:18:47.168Z,9.00
2022-11-25T08:21:33.236Z,9.04
2022-11-25T08:24:33.866Z,8.93
2022-11-25T08:27:20.099Z,8.87
2022-11-25T08:30:13.606Z,8.81
2022-11-25T08:33:00.807Z,8.71
2022-11-25T08:36:30.254Z,8.60
2022-11-25T08:42:27.955Z,8.75
2022-11-25T08:45:14.435Z,8.83
2022-11-25T08:48:01.054Z,8.95
2022-11-25T08:50:51.723Z,9.04
2022-11-25T08:53:46.886Z,9.05
2022-11-25T08:56:32.750Z,9.05
2022-11-25T08:59:19.100Z,8.80
2022-11-25T09:02:06.565Z,8.72
2022-11-25T09:04:59.727Z,8.50
2022-11-25T09:07:46.075Z,8.55
2022-11-25T09:10:33.305Z,8.62
2022-11-25T09:13:19.277Z,8.50
2022-11-25T09:16:13.405Z,8.41
2022-11-25T09:19:00.139Z,8.66
2022-11-25T09:21:46.049Z,8.84
2022-11-25T09:24:38.451Z,9.07
2022-11-25T09:27:27.293Z,9.44
2022-11-25T09:30:14.299Z,9.52
2022-11-25T09:33:00.132Z,9.19
2022-11-25T09:35:47.336Z,9.34
2022-11-25T09:38:42.777Z,9.38
2022-11-25T09:41:54.944Z,9.51
2022-11-25T09:45:02.502Z,9.59
2022-11-25T09:48:29.648Z,9.70
2022-11-25T09:51:58.844Z,9.66
2022-11-25T09:54:59.134Z,9.36
2022-11-25T09:58:46.649Z,9.42
2022-11-25T10:01:32.789Z,9.30
2022-11-25T10:04:47.458Z,9.70
2022-11-25T10:07:46.483Z,9.46
2022-11-25T10:12:31.055Z,9.42
2022-11-25T10:15:23.810Z,9.67
2022-11-25T10:18:00.209Z,9.79
2022-11-25T10:20:32.643Z,9.73
2022-11-25T10:23:09.811Z,9.77
2022-11-25T10:25:46.510Z,9.87
2022-11-25T10:28:30.626Z,9.97
2022-11-25T10:31:19.693Z,10.04
2022-11-25T10:33:49.605Z,10.13
2022-11-25T10:36:19.203Z,10.06
2022-11-25T10:39:12.540Z,10.06
2022-11-25T10:42:10.160Z,10.02
2022-11-25T10:44:40.763Z,9.97
2022-11-25T10:47:34.967Z,9.93
2022-11-25T10:50:20.320Z,10.26
2022-11-25T10:52:54.843Z,10.48
2022-11-25T10:55:28.654Z,10.22
2022-11-25T10:57:56.376Z,10.12
2022-11-25T11:00:31.430Z,9.61
2022-11-25T11:03:01.758Z,9.97
2022-11-25T11:05:30.676Z,10.28
2022-11-25T11:08:12.665Z,10.50
2022-11-25T11:10:42.659Z,10.15
2022-11-25T11:13:33.144Z,10.23
2022-11-25T11:16:00.542Z,9.95
2022-11-25T11:18:41.225Z,10.00
2022-11-25T11:21:23.600Z,10.17
2022-11-25T11:23:55.533Z,10.09
2022-11-25T11:26:31.543Z,9.88
2022-11-25T11:29:17.107Z,9.62
2022-11-25T11:32:03.850Z,9.86
2022-11-25T11:35:07.060Z,10.17
2022-11-25T11:37:54.410Z,10.23
2022-11-25T11:40:37.130Z,10.05
2022-11-25T11:43:26.201Z,9.78
2022-11-25T11:46:26.805Z,9.97
2022-11-25T11:49:29.077Z,9.94
2022-11-25T11:52:24.027Z,10.12
2022-11-25T11:54:59.053Z,10.10
2022-11-25T11:57:45.437Z,10.10
2022-11-25T12:00:15.159Z,9.75
2022-11-25T12:02:56.374Z,9.64
2022-11-25T12:05:28.901Z,9.88
2022-11-25T12:08:04.248Z,9.91
2022-11-25T12:10:41.355Z,9.71
2022-11-25T12:13:34.110Z,10.08
2022-11-25T12:16:10.065Z,10.06
2022-11-25T12:19:16.212Z,10.21
2022-11-25T12:22:00.504Z,10.01
2022-11-25T12:24:39.499Z,10.12
2022-11-25T12:27:36.558Z,9.47
2022-11-25T12:30:20.070Z,9.70
2022-11-25T12:32:56.538Z,9.94
2022-11-25T12:36:04.793Z,10.21
2022-11-25T12:38:45.745Z,9.95
2022-11-25T12:41:41.465Z,10.25
2022-11-25T12:44:25.789Z,10.15
2022-11-25T12:46:55.883Z,10.14
2022-11-25T12:49:32.712Z,10.26
2022-11-25T12:52:53.377Z,10.08
2022-11-25T12:55:23.088Z,10.00
2022-11-25T12:58:33.059Z,10.06
2022-11-25T13:01:30.414Z,10.10
2022-11-25T13:04:01.023Z,10.21
2022-11-25T13:06:34.732Z,10.16
2022-11-25T13:09:33.297Z,10.08
2022-11-25T13:12:49.516Z,10.10
2022-11-25T13:15:29.578Z,10.28
2022-11-25T13:18:11.175Z,10.33
2022-11-25T13:20:56.448Z,10.36
2022-11-25T13:23:29.618Z,10.11
2022-11-25T13:26:48.257Z,10.49
2022-11-25T13:29:15.466Z,10.06
2022-11-25T13:31:59.931Z,10.24
2022-11-25T13:34:31.117Z,10.38
2022-11-25T13:37:22.875Z,10.52
2022-11-25T13:39:49.815Z,10.29
2022-11-25T13:42:24.687Z,10.54
2022-11-25T13:44:59.273Z,10.40
2022-11-25T13:47:48.437Z,10.60
2022-11-25T13:50:21.545Z,10.47
2022-11-25T13:52:59.031Z,10.28
2022-11-25T13:55:39.114Z,10.51
2022-11-25T13:58:24.204Z,10.35
2022-11-25T14:00:57.277Z,10.17
2022-11-25T14:03:24.910Z,10.16
2022-11-25T14:06:23.146Z,10.12
2022-11-25T14:09:35.367Z,10.57
2022-11-25T14:12:30.442Z,10.77
2022-11-25T14:15:04.771Z,10.56
2022-11-25T14:18:10.337Z,10.68
2022-11-25T14:21:31.530Z,10.68
2022-11-25T14:24:10.060Z,10.57
2022-11-25T14:26:55.621Z,10.36
2022-11-25T14:29:32.125Z,10.43
2022-11-25T14:32:40.619Z,10.10
2022-11-25T14:35:41.678Z,10.77
2022-11-25T14:38:32.865Z,10.46
2022-11-25T14:41:13.195Z,10.79
2022-11-25T14:43:49.995Z,10.71
2022-11-25T14:46:21.546Z,10.78
2022-11-25T14:49:07.656Z,10.69
2022-11-25T14:51:42.332Z,10.78
2022-11-25T14:54:10.156Z,10.52
2022-11-25T14:56:37.918Z,10.61
2022-11-25T14:59:05.373Z,10.44
2022-11-25T15:01:35.023Z,10.81
2022-11-25T15:04:05.154Z,10.61
2022-11-25T15:06:42.509Z,10.88
2022-11-25T15:09:20.236Z,10.76
2022-11-25T15:11:47.820Z,11.02
2022-11-25T15:14:30.470Z,10.44
2022-11-25T15:16:58.751Z,10.40
2022-11-25T15:19:33.851Z,10.34
2022-11-25T15:22:24.073Z,10.70
2022-11-25T15:24:56.235Z,10.70
2022-11-25T15:27:28.871Z,10.80
2022-11-25T15:29:57.305Z,10.73
2022-11-25T15:32:33.780Z,10.76
2022-11-25T15:35:01.771Z,10.50
2022-11-25T15:37:29.325Z,10.62
2022-11-25T15:40:30.146Z,10.84
2022-11-25T15:43:03.132Z,10.77
2022-11-25T15:45:54.792Z,10.64
2022-11-25T15:48:45.272Z,10.82
2022-11-25T15:51:41.481Z,10.92
2022-11-25T15:54:25.829Z,11.04
2022-11-25T15:57:35.892Z,11.27
2022-11-25T16:00:25.054Z,11.28
2022-11-25T16:02:58.416Z,11.27
2022-11-25T16:05:34.654Z,10.78
2022-11-25T16:08:24.329Z,10.80
2022-11-25T16:10:59.179Z,11.20
2022-11-25T16:13:30.195Z,11.20
2022-11-25T16:16:29.555Z,11.07
2022-11-25T16:19:02.526Z,11.17
2022-11-25T16:21:35.545Z,11.06
2022-11-25T16:24:05.507Z,10.91
2022-11-25T16:26:37.031Z,11.06
2022-11-25T16:29:16.575Z,10.48
2022-11-25T16:31:44.234Z,10.46
2022-11-25T16:34:18.924Z,10.65
2022-11-25T16:36:47.269Z,10.78
2022-11-25T16:39:14.731Z,10.80
2022-11-25T16:41:42.883Z,10.94
2022-11-25T16:44:18.938Z,10.71
2022-11-25T16:46:46.629Z,10.70
2022-11-25T16:49:15.891Z,10.66
2022-11-25T16:51:43.210Z,10.24
2022-11-25T16:54:10.678Z,10.35
2022-11-25T16:56:41.226Z,10.54
2022-11-25T16:59:32.036Z,10.42
2022-11-25T17:02:00.644Z,10.64
2022-11-25T17:04:28.012Z,10.80
2022-11-25T17:07:30.679Z,10.98
2022-11-25T17:09:44.276Z,10.97
2022-11-25T17:12:16.991Z,10.84
2022-11-25T17:14:45.176Z,10.67
2022-11-25T17:17:24.469Z,10.83
2022-11-25T17:20:21.536Z,10.80
2022-11-25T17:22:49.191Z,10.50
2022-11-25T17:25:16.779Z,10.54
2022-11-25T17:27:46.273Z,10.81
2022-11-25T17:30:23.398Z,10.98
2022-11-25T17:33:00.841Z,10.87
2022-11-25T17:35:28.394Z,10.88
2022-11-25T17:38:01.644Z,10.99
2022-11-25T17:40:29.068Z,10.89
2022-11-25T17:42:56.383Z,10.88
2022-11-25T17:45:23.819Z,10.88
2022-11-25T17:47:51.156Z,10.87
2022-11-25T17:50:26.066Z,10.96
2022-11-25T17:52:53.580Z,10.95
2022-11-25T17:55:22.775Z,10.69
2022-11-25T17:57:50.457Z,10.84
2022-11-25T18:00:22.630Z,10.68
2022-11-25T18:02:49.895Z,10.89
2022-11-25T18:05:26.720Z,10.89
2022-11-25T18:07:54.140Z,10.76
2022-11-25T18:10:25.664Z,10.51
2022-11-25T18:12:55.519Z,10.65
2022-11-25T18:15:26.575Z,10.77
2022-11-25T18:18:06.835Z,10.97
2022-11-25T18:20:34.301Z,10.89
2022-11-25T18:23:01.758Z,10.84
2022-11-25T18:25:33.982Z,10.72
2022-11-25T18:28:01.463Z,11.02
2022-11-25T18:30:34.843Z,10.98
2022-11-25T18:33:05.428Z,10.69
2022-11-25T18:35:36.485Z,10.58
2022-11-25T18:38:05.216Z,10.72
2022-11-25T18:40:32.827Z,10.62
2022-11-25T18:43:04.710Z,10.37
2022-11-25T18:45:40.463Z,10.61
2022-11-25T18:48:16.092Z,10.78
2022-11-25T18:50:44.437Z,10.60
2022-11-25T18:53:11.855Z,10.77
2022-11-25T18:55:39.451Z,10.78
2022-11-25T18:58:32.682Z,10.69
2022-11-25T19:01:06.063Z,10.82
2022-11-25T19:03:33.097Z,10.82
2022-11-25T19:06:01.756Z,10.68
2022-11-25T19:08:29.639Z,10.51
2022-11-25T19:10:57.162Z,10.76
2022-11-25T19:13:33.174Z,10.79
2022-11-25T19:16:08.355Z,10.81
2022-11-25T19:18:35.963Z,10.65
2022-11-25T19:21:03.188Z,10.79
2022-11-25T19:23:30.538Z,10.90
2022-11-25T19:26:07.540Z,10.78
2022-11-25T19:28:35.228Z,10.84
2022-11-25T19:31:04.777Z,10.84
2022-11-25T19:33:36.829Z,10.81
2022-11-25T19:36:05.440Z,10.89
2022-11-25T19:38:33.125Z,10.83
2022-11-25T19:41:00.430Z,10.84
2022-11-25T19:43:27.976Z,10.82
2022-11-25T19:45:57.164Z,10.91
2022-11-25T19:48:27.119Z,10.86
2022-11-25T19:50:59.892Z,10.77
2022-11-25T19:53:33.106Z,10.81
2022-11-25T19:56:04.822Z,10.68
2022-11-25T19:58:32.185Z,10.76
2022-11-25T20:01:04.447Z,10.84
2022-11-25T20:03:31.863Z,10.81
2022-11-25T20:05:59.274Z,10.73
2022-11-25T20:08:28.888Z,10.66
2022-11-25T20:10:57.350Z,10.70
2022-11-25T20:13:25.986Z,10.72
2022-11-25T20:15:55.489Z,10.41
2022-11-25T20:18:24.555Z,10.40
2022-11-25T20:21:00.806Z,10.37
2022-11-25T20:23:43.759Z,10.23
2022-11-25T20:26:32.342Z,10.56
2022-11-25T20:28:59.304Z,10.45
2022-11-25T20:31:30.558Z,10.31
2022-11-25T20:33:58.094Z,10.38
2022-11-25T20:36:33.292Z,10.58
2022-11-25T20:39:02.572Z,10.50
2022-11-25T20:41:30.664Z,10.30
2022-11-25T20:43:58.534Z,10.34
2022-11-25T20:46:32.095Z,10.37
2022-11-25T20:49:27.433Z,10.51
2022-11-25T20:51:55.596Z,10.33
2022-11-25T20:54:24.534Z,10.28
2022-11-25T20:56:51.889Z,10.27
2022-11-25T20:59:22.962Z,10.33
2022-11-25T21:01:51.093Z,10.33
2022-11-25T21:04:18.559Z,10.00
2022-11-25T21:06:46.336Z,9.93
2022-11-25T21:09:23.367Z,10.04
2022-11-25T21:11:50.741Z,10.01
2022-11-25T21:14:19.910Z,10.15
2022-11-25T21:16:47.744Z,10.18
2022-11-25T21:19:15.242Z,10.30
2022-11-25T21:21:45.991Z,10.16
2022-11-25T21:24:35.305Z,10.37
2022-11-25T21:27:13.946Z,10.46
2022-11-25T21:29:43.348Z,10.09
2022-11-25T21:32:25.389Z,10.01
2022-11-25T21:34:54.866Z,10.04
2022-11-25T21:37:36.600Z,10.23
2022-11-25T21:40:07.901Z,10.30
2022-11-25T21:42:35.276Z,10.23
2022-11-25T21:45:02.234Z,10.33
2022-11-25T21:47:30.702Z,10.44
2022-11-25T21:49:58.528Z,10.21
2022-11-25T21:52:27.520Z,10.21
2022-11-25T21:54:54.696Z,10.25
2022-11-25T21:57:27.906Z,10.21
2022-11-25T21:59:54.863Z,10.10
2022-11-25T22:02:24.056Z,10.13
2022-11-25T22:04:51.820Z,9.89
2022-11-25T22:07:18.883Z,9.87
2022-11-25T22:09:46.275Z,9.86
2022-11-25T22:12:34.310Z,10.21
2022-11-25T22:15:04.337Z,10.13
2022-11-25T22:17:31.374Z,9.99
2022-11-25T22:19:58.728Z,10.09
2022-11-25T22:22:25.652Z,10.08
2022-11-25T22:24:52.729Z,10.16
2022-11-25T22:27:26.191Z,10.14
2022-11-25T22:29:54.125Z,10.07
2022-11-25T22:32:21.674Z,10.07
2022-11-25T22:34:49.068Z,10.05
2022-11-25T22:37:24.146Z,10.26
2022-11-25T22:39:51.373Z,9.90
2022-11-25T22:42:30.986Z,10.33
2022-11-25T22:45:00.904Z,10.25
2022-11-25T22:47:37.570Z,10.32
2022-11-25T22:50:14.447Z,10.15
2022-11-25T22:52:41.746Z,10.06
2022-11-25T22:55:19.735Z,10.39
2022-11-25T22:57:48.327Z,10.32
2022-11-25T23:00:24.516Z,10.35
2022-11-25T23:02:54.750Z,10.20
2022-11-25T23:05:34.983Z,10.41
2022-11-25T23:08:24.152Z,10.48
2022-11-25T23:10:52.876Z,10.16
2022-11-25T23:13:22.864Z,10.21
2022-11-25T23:15:59.587Z,10.36
2022-11-25T23:18:38.132Z,10.43
2022-11-25T23:21:23.973Z,10.32
2022-11-25T23:23:51.125Z,10.19
2022-11-25T23:26:18.498Z,10.20
2022-11-25T23:28:46.023Z,10.17
2022-11-25T23:31:14.975Z,10.27
2022-11-25T23:33:45.235Z,10.03
2022-11-25T23:36:18.889Z,10.29
2022-11-25T23:38:52.027Z,10.19
2022-11-25T23:41:27.882Z,10.03
2022-11-25T23:43:55.358Z,9.96
2022-11-25T23:46:32.766Z,10.25
2022-11-25T23:49:03.286Z,9.69
2022-11-25T23:51:30.908Z,9.88
2022-11-25T23:53:58.730Z,10.10
2022-11-25T23:56:28.090Z,10.13
2022-11-25T23:58:55.028Z,10.06
